sensor_id;sensor_type;location;lat;lon;timestamp;temperature;humidity
66582;SHT31;53438;48.898;2.308;2023-07-20T03:02:25;19.29;69.79
66582;SHT31;53438;48.898;2.308;2023-07-20T03:04:51;19.23;69.80
66582;SHT31;53438;48.898;2.308;2023-07-20T03:07:16;19.22;70.05
66582;SHT31;53438;48.898;2.308;2023-07-20T03:09:42;19.29;69.75
66582;SHT31;53438;48.898;2.308;2023-07-20T03:12:08;19.33;69.70
66582;SHT31;53438;48.898;2.308;2023-07-20T03:14:34;19.26;69.95
66582;SHT31;53438;48.898;2.308;2023-07-20T03:16:59;19.16;70.33
66582;SHT31;53438;48.898;2.308;2023-07-20T03:19:25;19.22;70.26
66582;SHT31;53438;48.898;2.308;2023-07-20T03:21:50;19.17;70.38
66582;SHT31;53438;48.898;2.308;2023-07-20T03:24:16;19.26;70.13
66582;SHT31;53438;48.898;2.308;2023-07-20T03:26:41;19.24;70.23
66582;SHT31;53438;48.898;2.308;2023-07-20T03:29:06;19.06;70.65
66582;SHT31;53438;48.898;2.308;2023-07-20T03:31:32;19.08;70.59
66582;SHT31;53438;48.898;2.308;2023-07-20T03:33:58;18.96;70.75
66582;SHT31;53438;48.898;2.308;2023-07-20T03:36:23;18.92;70.94
66582;SHT31;53438;48.898;2.308;2023-07-20T03:38:49;18.95;70.70
66582;SHT31;53438;48.898;2.308;2023-07-20T03:41:15;18.85;71.08
66582;SHT31;53438;48.898;2.308;2023-07-20T03:43:41;18.86;70.91
66582;SHT31;53438;48.898;2.308;2023-07-20T03:46:06;18.94;70.86
66582;SHT31;53438;48.898;2.308;2023-07-20T03:48:32;18.67;71.74
66582;SHT31;53438;48.898;2.308;2023-07-20T03:50:58;18.82;71.20
66582;SHT31;53438;48.898;2.308;2023-07-20T03:53:24;18.78;71.21
66582;SHT31;53438;48.898;2.308;2023-07-20T03:55:50;18.85;71.11
66582;SHT31;53438;48.898;2.308;2023-07-20T03:58:17;18.81;71.14
66582;SHT31;53438;48.898;2.308;2023-07-20T04:00:47;18.75;71.21
66582;SHT31;53438;48.898;2.308;2023-07-20T04:03:13;18.86;71.10
66582;SHT31;53438;48.898;2.308;2023-07-20T04:05:38;18.82;71.24
66582;SHT31;53438;48.898;2.308;2023-07-20T04:08:04;18.82;71.47
66582;SHT31;53438;48.898;2.308;2023-07-20T04:10:29;18.88;71.24
66582;SHT31;53438;48.898;2.308;2023-07-20T04:12:55;18.78;71.48
66582;SHT31;53438;48.898;2.308;2023-07-20T04:15:20;18.85;71.36
66582;SHT31;53438;48.898;2.308;2023-07-20T04:17:45;18.91;71.19
66582;SHT31;53438;48.898;2.308;2023-07-20T04:20:11;18.82;71.40
66582;SHT31;53438;48.898;2.308;2023-07-20T04:22:36;18.73;71.84
66582;SHT31;53438;48.898;2.308;2023-07-20T04:25:03;18.84;71.70
66582;SHT31;53438;48.898;2.308;2023-07-20T04:27:28;18.75;71.89
66582;SHT31;53438;48.898;2.308;2023-07-20T04:29:54;18.75;72.00
66582;SHT31;53438;48.898;2.308;2023-07-20T04:32:19;18.79;71.87
66582;SHT31;53438;48.898;2.308;2023-07-20T04:34:44;18.79;71.86
66582;SHT31;53438;48.898;2.308;2023-07-20T04:37:10;18.79;71.92
66582;SHT31;53438;48.898;2.308;2023-07-20T04:39:35;18.72;72.35
66582;SHT31;53438;48.898;2.308;2023-07-20T04:42:00;17.79;76.01
66582;SHT31;53438;48.898;2.308;2023-07-20T04:44:26;17.68;76.93
66582;SHT31;53438;48.898;2.308;2023-07-20T04:46:51;17.75;76.85
66582;SHT31;53438;48.898;2.308;2023-07-20T04:49:16;17.70;77.26
66582;SHT31;53438;48.898;2.308;2023-07-20T04:51:42;17.93;76.51
66582;SHT31;53438;48.898;2.308;2023-07-20T04:54:07;18.09;75.96
66582;SHT31;53438;48.898;2.308;2023-07-20T04:56:33;18.07;76.10
66582;SHT31;53438;48.898;2.308;2023-07-20T04:58:58;18.07;76.02
66582;SHT31;53438;48.898;2.308;2023-07-20T05:01:24;17.83;76.36
66582;SHT31;53438;48.898;2.308;2023-07-20T05:03:49;17.96;76.53
66582;SHT31;53438;48.898;2.308;2023-07-20T05:06:15;18.18;75.74
66582;SHT31;53438;48.898;2.308;2023-07-20T05:08:40;18.03;75.84
66582;SHT31;53438;48.898;2.308;2023-07-20T05:11:06;17.83;76.19
66582;SHT31;53438;48.898;2.308;2023-07-20T05:13:32;18.17;75.28
66582;SHT31;53438;48.898;2.308;2023-07-20T05:15:57;18.13;75.25
66582;SHT31;53438;48.898;2.308;2023-07-20T05:18:23;17.87;75.53
66582;SHT31;53438;48.898;2.308;2023-07-20T05:20:49;17.96;75.85
66582;SHT31;53438;48.898;2.308;2023-07-20T05:23:15;18.10;75.22
66582;SHT31;53438;48.898;2.308;2023-07-20T05:25:42;18.27;74.61
66582;SHT31;53438;48.898;2.308;2023-07-20T05:28:08;18.41;74.23
66582;SHT31;53438;48.898;2.308;2023-07-20T05:30:33;18.18;74.81
66582;SHT31;53438;48.898;2.308;2023-07-20T05:32:58;18.38;74.19
66582;SHT31;53438;48.898;2.308;2023-07-20T05:35:26;18.49;73.77
66582;SHT31;53438;48.898;2.308;2023-07-20T05:37:51;18.67;73.28
66582;SHT31;53438;48.898;2.308;2023-07-20T05:40:17;18.65;73.33
66582;SHT31;53438;48.898;2.308;2023-07-20T05:42:47;18.18;74.57
66582;SHT31;53438;48.898;2.308;2023-07-20T05:45:14;18.13;74.92
66582;SHT31;53438;48.898;2.308;2023-07-20T05:47:41;17.76;76.09
66582;SHT31;53438;48.898;2.308;2023-07-20T05:50:06;17.65;76.42
66582;SHT31;53438;48.898;2.308;2023-07-20T05:52:32;17.73;76.12
66582;SHT31;53438;48.898;2.308;2023-07-20T05:54:57;18.09;75.19
66582;SHT31;53438;48.898;2.308;2023-07-20T05:57:23;18.01;75.20
66582;SHT31;53438;48.898;2.308;2023-07-20T05:59:48;17.90;75.33
66582;SHT31;53438;48.898;2.308;2023-07-20T06:02:14;17.94;75.54
66582;SHT31;53438;48.898;2.308;2023-07-20T06:04:39;17.73;75.77
66582;SHT31;53438;48.898;2.308;2023-07-20T06:07:05;17.68;76.25
66582;SHT31;53438;48.898;2.308;2023-07-20T06:09:30;17.75;75.80
66582;SHT31;53438;48.898;2.308;2023-07-20T06:11:56;17.55;76.62
66582;SHT31;53438;48.898;2.308;2023-07-20T06:14:22;17.32;77.34
66582;SHT31;53438;48.898;2.308;2023-07-20T06:16:47;17.62;76.47
66582;SHT31;53438;48.898;2.308;2023-07-20T06:19:12;17.61;76.37
66582;SHT31;53438;48.898;2.308;2023-07-20T06:21:38;17.55;76.79
66582;SHT31;53438;48.898;2.308;2023-07-20T06:24:04;17.49;76.44
66582;SHT31;53438;48.898;2.308;2023-07-20T06:26:30;17.72;75.99
66582;SHT31;53438;48.898;2.308;2023-07-20T06:28:56;17.65;76.37
66582;SHT31;53438;48.898;2.308;2023-07-20T06:31:21;17.94;75.23
66582;SHT31;53438;48.898;2.308;2023-07-20T06:33:47;18.16;74.55
66582;SHT31;53438;48.898;2.308;2023-07-20T06:36:12;18.41;73.87
66582;SHT31;53438;48.898;2.308;2023-07-20T06:38:38;18.57;73.22
66582;SHT31;53438;48.898;2.308;2023-07-20T06:41:03;18.71;72.84
66582;SHT31;53438;48.898;2.308;2023-07-20T06:43:29;17.83;75.31
66582;SHT31;53438;48.898;2.308;2023-07-20T06:45:54;18.33;74.06
66582;SHT31;53438;48.898;2.308;2023-07-20T06:48:20;17.94;75.08
66582;SHT31;53438;48.898;2.308;2023-07-20T06:50:46;18.44;73.96
66582;SHT31;53438;48.898;2.308;2023-07-20T06:53:11;18.67;73.04
66582;SHT31;53438;48.898;2.308;2023-07-20T06:55:36;18.76;72.47
66582;SHT31;53438;48.898;2.308;2023-07-20T06:58:02;18.17;74.04
66582;SHT31;53438;48.898;2.308;2023-07-20T07:00:28;18.28;74.33
66582;SHT31;53438;48.898;2.308;2023-07-20T07:02:53;18.75;72.91
66582;SHT31;53438;48.898;2.308;2023-07-20T07:05:18;19.05;71.88
66582;SHT31;53438;48.898;2.308;2023-07-20T07:07:44;19.29;70.93
66582;SHT31;53438;48.898;2.308;2023-07-20T07:10:09;19.58;70.00
66582;SHT31;53438;48.898;2.308;2023-07-20T07:12:35;19.34;70.54
66582;SHT31;53438;48.898;2.308;2023-07-20T07:15:01;19.68;69.63
66582;SHT31;53438;48.898;2.308;2023-07-20T07:17:27;19.87;68.93
66582;SHT31;53438;48.898;2.308;2023-07-20T07:19:52;20.09;68.00
66582;SHT31;53438;48.898;2.308;2023-07-20T07:22:21;19.24;70.52
66582;SHT31;53438;48.898;2.308;2023-07-20T07:24:47;19.31;70.27
66582;SHT31;53438;48.898;2.308;2023-07-20T07:27:13;18.92;71.74
66582;SHT31;53438;48.898;2.308;2023-07-20T07:29:41;19.15;70.91
66582;SHT31;53438;48.898;2.308;2023-07-20T07:32:09;19.12;71.18
66582;SHT31;53438;48.898;2.308;2023-07-20T07:34:35;19.54;69.91
66582;SHT31;53438;48.898;2.308;2023-07-20T07:37:00;19.58;69.68
66582;SHT31;53438;48.898;2.308;2023-07-20T07:39:27;19.75;69.03
66582;SHT31;53438;48.898;2.308;2023-07-20T07:41:55;19.64;69.50
66582;SHT31;53438;48.898;2.308;2023-07-20T07:44:20;19.87;68.40
66582;SHT31;53438;48.898;2.308;2023-07-20T07:46:46;19.89;68.08
66582;SHT31;53438;48.898;2.308;2023-07-20T07:49:12;20.01;68.36
66582;SHT31;53438;48.898;2.308;2023-07-20T07:51:37;19.91;68.47
66582;SHT31;53438;48.898;2.308;2023-07-20T07:54:02;20.12;67.48
66582;SHT31;53438;48.898;2.308;2023-07-20T07:56:28;20.16;67.28
66582;SHT31;53438;48.898;2.308;2023-07-20T07:58:53;20.39;66.65
66582;SHT31;53438;48.898;2.308;2023-07-20T08:01:18;20.30;66.67
66582;SHT31;53438;48.898;2.308;2023-07-20T08:03:44;19.94;67.42
66582;SHT31;53438;48.898;2.308;2023-07-20T08:06:12;20.43;65.95
66582;SHT31;53438;48.898;2.308;2023-07-20T08:08:38;20.73;65.66
66582;SHT31;53438;48.898;2.308;2023-07-20T08:11:04;21.00;64.94
66582;SHT31;53438;48.898;2.308;2023-07-20T08:13:29;20.39;65.92
66582;SHT31;53438;48.898;2.308;2023-07-20T08:15:55;20.32;66.58
66582;SHT31;53438;48.898;2.308;2023-07-20T08:18:20;20.57;65.87
66582;SHT31;53438;48.898;2.308;2023-07-20T08:20:47;20.62;65.48
66582;SHT31;53438;48.898;2.308;2023-07-20T08:23:13;21.10;63.82
66582;SHT31;53438;48.898;2.308;2023-07-20T08:25:39;20.50;65.37
66582;SHT31;53438;48.898;2.308;2023-07-20T08:28:09;20.19;66.30
66582;SHT31;53438;48.898;2.308;2023-07-20T08:33:07;20.50;65.55
66582;SHT31;53438;48.898;2.308;2023-07-20T08:35:33;20.45;65.96
66582;SHT31;53438;48.898;2.308;2023-07-20T08:37:59;20.47;65.26
66582;SHT31;53438;48.898;2.308;2023-07-20T08:40:24;20.66;64.70
66582;SHT31;53438;48.898;2.308;2023-07-20T08:42:50;20.59;64.82
66582;SHT31;53438;48.898;2.308;2023-07-20T08:45:16;20.90;64.13
66582;SHT31;53438;48.898;2.308;2023-07-20T08:47:43;20.77;64.08
66582;SHT31;53438;48.898;2.308;2023-07-20T08:50:10;20.93;63.92
66582;SHT31;53438;48.898;2.308;2023-07-20T08:52:36;21.18;62.73
66582;SHT31;53438;48.898;2.308;2023-07-20T08:55:02;21.61;61.08
66582;SHT31;53438;48.898;2.308;2023-07-20T08:57:33;21.11;62.30
66582;SHT31;53438;48.898;2.308;2023-07-20T09:00:00;21.59;60.87
66582;SHT31;53438;48.898;2.308;2023-07-20T09:02:30;21.96;59.79
66582;SHT31;53438;48.898;2.308;2023-07-20T09:04:58;21.88;59.61
66582;SHT31;53438;48.898;2.308;2023-07-20T09:07:23;22.03;59.21
66582;SHT31;53438;48.898;2.308;2023-07-20T09:09:49;21.54;58.70
66582;SHT31;53438;48.898;2.308;2023-07-20T09:12:15;22.09;58.35
66582;SHT31;53438;48.898;2.308;2023-07-20T09:14:45;21.49;58.74
66582;SHT31;53438;48.898;2.308;2023-07-20T09:17:14;21.63;58.56
66582;SHT31;53438;48.898;2.308;2023-07-20T09:19:47;21.99;58.07
66582;SHT31;53438;48.898;2.308;2023-07-20T09:22:13;22.36;56.96
66582;SHT31;53438;48.898;2.308;2023-07-20T09:24:39;22.33;57.41
66582;SHT31;53438;48.898;2.308;2023-07-20T09:27:04;22.50;57.16
66582;SHT31;53438;48.898;2.308;2023-07-20T09:29:30;22.48;55.60
66582;SHT31;53438;48.898;2.308;2023-07-20T09:32:03;22.53;54.46
66582;SHT31;53438;48.898;2.308;2023-07-20T09:34:32;22.40;54.30
66582;SHT31;53438;48.898;2.308;2023-07-20T09:36:58;22.14;54.31
66582;SHT31;53438;48.898;2.308;2023-07-20T09:39:24;22.69;53.64
66582;SHT31;53438;48.898;2.308;2023-07-20T09:41:50;23.03;52.94
66582;SHT31;53438;48.898;2.308;2023-07-20T09:44:16;23.26;51.99
66582;SHT31;53438;48.898;2.308;2023-07-20T09:46:46;23.50;51.33
66582;SHT31;53438;48.898;2.308;2023-07-20T09:49:12;23.29;50.81
66582;SHT31;53438;48.898;2.308;2023-07-20T09:51:37;22.39;52.69
66582;SHT31;53438;48.898;2.308;2023-07-20T09:54:04;22.58;52.32
66582;SHT31;53438;48.898;2.308;2023-07-20T09:56:30;22.44;53.00
66582;SHT31;53438;48.898;2.308;2023-07-20T09:58:57;22.87;51.79
66582;SHT31;53438;48.898;2.308;2023-07-20T10:01:23;22.85;51.78
66582;SHT31;53438;48.898;2.308;2023-07-20T10:03:51;23.18;50.31
66582;SHT31;53438;48.898;2.308;2023-07-20T10:06:22;23.49;49.21
66582;SHT31;53438;48.898;2.308;2023-07-20T10:08:52;23.73;47.00
66582;SHT31;53438;48.898;2.308;2023-07-20T10:11:18;23.80;45.18
66582;SHT31;53438;48.898;2.308;2023-07-20T10:13:46;23.01;47.76
66582;SHT31;53438;48.898;2.308;2023-07-20T10:16:22;22.84;48.67
66582;SHT31;53438;48.898;2.308;2023-07-20T10:19:47;22.98;48.47
66582;SHT31;53438;48.898;2.308;2023-07-20T10:21:57;23.02;48.62
66582;SHT31;53438;48.898;2.308;2023-07-20T10:24:25;23.03;48.79
66582;SHT31;53438;48.898;2.308;2023-07-20T10:26:51;23.02;49.60
66582;SHT31;53438;48.898;2.308;2023-07-20T10:29:17;23.27;49.58
66582;SHT31;53438;48.898;2.308;2023-07-20T10:31:43;23.30;49.78
66582;SHT31;53438;48.898;2.308;2023-07-20T10:34:09;23.03;49.61
66582;SHT31;53438;48.898;2.308;2023-07-20T10:36:43;23.05;49.67
66582;SHT31;53438;48.898;2.308;2023-07-20T10:39:22;23.38;48.99
66582;SHT31;53438;48.898;2.308;2023-07-20T10:41:48;23.49;48.77
66582;SHT31;53438;48.898;2.308;2023-07-20T10:44:19;23.71;47.98
66582;SHT31;53438;48.898;2.308;2023-07-20T10:46:45;23.83;47.96
66582;SHT31;53438;48.898;2.308;2023-07-20T10:49:13;23.84;47.96
66582;SHT31;53438;48.898;2.308;2023-07-20T10:51:45;24.00;47.82
66582;SHT31;53438;48.898;2.308;2023-07-20T10:56:44;23.84;45.46
66582;SHT31;53438;48.898;2.308;2023-07-20T11:01:54;23.87;45.10
66582;SHT31;53438;48.898;2.308;2023-07-20T11:04:40;24.08;44.62
66582;SHT31;53438;48.898;2.308;2023-07-20T11:07:06;24.04;44.88
66582;SHT31;53438;48.898;2.308;2023-07-20T11:09:38;23.70;45.70
66582;SHT31;53438;48.898;2.308;2023-07-20T11:12:10;23.49;46.31
66582;SHT31;53438;48.898;2.308;2023-07-20T11:14:40;23.38;46.47
66582;SHT31;53438;48.898;2.308;2023-07-20T11:17:14;23.74;45.62
66582;SHT31;53438;48.898;2.308;2023-07-20T11:19:40;24.04;45.03
66582;SHT31;53438;48.898;2.308;2023-07-20T11:22:09;24.24;44.32
66582;SHT31;53438;48.898;2.308;2023-07-20T11:24:38;24.18;43.46
66582;SHT31;53438;48.898;2.308;2023-07-20T11:27:04;23.91;44.25
66582;SHT31;53438;48.898;2.308;2023-07-20T11:29:30;24.33;43.88
66582;SHT31;53438;48.898;2.308;2023-07-20T11:31:56;24.08;43.82
66582;SHT31;53438;48.898;2.308;2023-07-20T11:34:21;23.98;43.16
66582;SHT31;53438;48.898;2.308;2023-07-20T11:36:48;24.15;42.73
66582;SHT31;53438;48.898;2.308;2023-07-20T11:39:15;24.32;42.52
66582;SHT31;53438;48.898;2.308;2023-07-20T11:41:48;24.14;42.86
66582;SHT31;53438;48.898;2.308;2023-07-20T11:44:16;24.49;42.42
66582;SHT31;53438;48.898;2.308;2023-07-20T11:46:42;24.62;41.90
66582;SHT31;53438;48.898;2.308;2023-07-20T11:49:08;24.90;41.20
66582;SHT31;53438;48.898;2.308;2023-07-20T11:51:34;25.06;40.14
66582;SHT31;53438;48.898;2.308;2023-07-20T11:54:01;25.14;39.14
66582;SHT31;53438;48.898;2.308;2023-07-20T11:56:27;25.28;38.82
66582;SHT31;53438;48.898;2.308;2023-07-20T11:59:00;25.38;38.13
66582;SHT31;53438;48.898;2.308;2023-07-20T12:01:27;25.30;37.29
66582;SHT31;53438;48.898;2.308;2023-07-20T12:03:59;24.93;39.00
66582;SHT31;53438;48.898;2.308;2023-07-20T12:06:25;25.00;39.73
66582;SHT31;53438;48.898;2.308;2023-07-20T12:08:54;25.23;38.95
66582;SHT31;53438;48.898;2.308;2023-07-20T12:11:34;25.38;37.78
66582;SHT31;53438;48.898;2.308;2023-07-20T12:14:00;25.13;38.47
66582;SHT31;53438;48.898;2.308;2023-07-20T12:16:28;25.11;38.13
66582;SHT31;53438;48.898;2.308;2023-07-20T12:19:03;25.11;38.71
66582;SHT31;53438;48.898;2.308;2023-07-20T12:21:30;25.21;38.78
66582;SHT31;53438;48.898;2.308;2023-07-20T12:23:57;25.24;38.19
66582;SHT31;53438;48.898;2.308;2023-07-20T12:26:23;25.27;38.17
66582;SHT31;53438;48.898;2.308;2023-07-20T12:28:50;25.24;38.43
66582;SHT31;53438;48.898;2.308;2023-07-20T12:31:16;25.37;39.10
66582;SHT31;53438;48.898;2.308;2023-07-20T12:33:41;25.30;39.05
66582;SHT31;53438;48.898;2.308;2023-07-20T12:36:09;24.90;39.59
66582;SHT31;53438;48.898;2.308;2023-07-20T12:38:36;24.75;40.15
66582;SHT31;53438;48.898;2.308;2023-07-20T12:41:02;24.87;39.87
66582;SHT31;53438;48.898;2.308;2023-07-20T12:43:28;24.80;39.00
66582;SHT31;53438;48.898;2.308;2023-07-20T12:45:54;25.02;38.87
66582;SHT31;53438;48.898;2.308;2023-07-20T12:48:20;24.79;38.66
66582;SHT31;53438;48.898;2.308;2023-07-20T12:50:45;24.96;38.28
66582;SHT31;53438;48.898;2.308;2023-07-20T12:53:10;25.20;38.55
66582;SHT31;53438;48.898;2.308;2023-07-20T12:55:37;24.96;38.37
66582;SHT31;53438;48.898;2.308;2023-07-20T12:58:02;25.23;38.15
66582;SHT31;53438;48.898;2.308;2023-07-20T13:00:28;24.91;38.25
66582;SHT31;53438;48.898;2.308;2023-07-20T13:02:53;25.04;38.22
66582;SHT31;53438;48.898;2.308;2023-07-20T13:05:19;24.97;38.36
66582;SHT31;53438;48.898;2.308;2023-07-20T13:07:44;25.07;38.69
66582;SHT31;53438;48.898;2.308;2023-07-20T13:10:11;24.62;39.01
66582;SHT31;53438;48.898;2.308;2023-07-20T13:12:37;24.66;38.82
66582;SHT31;53438;48.898;2.308;2023-07-20T13:15:07;24.84;38.76
66582;SHT31;53438;48.898;2.308;2023-07-20T13:17:37;25.03;38.44
66582;SHT31;53438;48.898;2.308;2023-07-20T13:20:04;25.07;38.25
66582;SHT31;53438;48.898;2.308;2023-07-20T13:22:31;25.16;38.29
66582;SHT31;53438;48.898;2.308;2023-07-20T13:24:57;25.24;38.59
66582;SHT31;53438;48.898;2.308;2023-07-20T13:27:22;25.31;38.33
66582;SHT31;53438;48.898;2.308;2023-07-20T13:29:48;24.99;38.06
66582;SHT31;53438;48.898;2.308;2023-07-20T13:32:14;25.23;37.85
66582;SHT31;53438;48.898;2.308;2023-07-20T13:34:40;25.28;37.77
66582;SHT31;53438;48.898;2.308;2023-07-20T13:37:06;25.38;37.61
66582;SHT31;53438;48.898;2.308;2023-07-20T13:39:31;25.44;37.95
66582;SHT31;53438;48.898;2.308;2023-07-20T13:41:56;25.54;37.78
66582;SHT31;53438;48.898;2.308;2023-07-20T13:44:22;25.62;37.65
66582;SHT31;53438;48.898;2.308;2023-07-20T13:46:48;25.69;37.96
66582;SHT31;53438;48.898;2.308;2023-07-20T13:49:13;25.75;37.40
66582;SHT31;53438;48.898;2.308;2023-07-20T13:51:39;25.88;37.98
66582;SHT31;53438;48.898;2.308;2023-07-20T13:54:05;25.89;37.61
66582;SHT31;53438;48.898;2.308;2023-07-20T13:56:31;25.85;37.58
66582;SHT31;53438;48.898;2.308;2023-07-20T13:58:56;25.72;37.69
66582;SHT31;53438;48.898;2.308;2023-07-20T14:01:22;25.58;38.12
66582;SHT31;53438;48.898;2.308;2023-07-20T14:03:50;25.52;37.03
66582;SHT31;53438;48.898;2.308;2023-07-20T14:06:15;25.71;37.00
66582;SHT31;53438;48.898;2.308;2023-07-20T14:08:42;25.38;37.61
66582;SHT31;53438;48.898;2.308;2023-07-20T14:11:08;25.41;37.54
66582;SHT31;53438;48.898;2.308;2023-07-20T14:13:33;25.72;37.55
66582;SHT31;53438;48.898;2.308;2023-07-20T14:15:58;25.74;37.15
66582;SHT31;53438;48.898;2.308;2023-07-20T14:18:24;25.79;37.01
66582;SHT31;53438;48.898;2.308;2023-07-20T14:20:49;25.82;36.91
66582;SHT31;53438;48.898;2.308;2023-07-20T14:23:15;25.85;37.17
66582;SHT31;53438;48.898;2.308;2023-07-20T14:25:40;25.74;37.19
66582;SHT31;53438;48.898;2.308;2023-07-20T14:28:07;25.69;37.42
66582;SHT31;53438;48.898;2.308;2023-07-20T14:30:32;25.81;37.38
66582;SHT31;53438;48.898;2.308;2023-07-20T14:32:57;25.74;37.20
66582;SHT31;53438;48.898;2.308;2023-07-20T14:35:23;25.77;37.37
66582;SHT31;53438;48.898;2.308;2023-07-20T14:37:48;25.84;37.26
66582;SHT31;53438;48.898;2.308;2023-07-20T14:40:15;25.90;37.21
66582;SHT31;53438;48.898;2.308;2023-07-20T14:42:40;25.89;37.06
66582;SHT31;53438;48.898;2.308;2023-07-20T14:45:06;25.88;36.81
66582;SHT31;53438;48.898;2.308;2023-07-20T14:47:31;25.92;36.81
66582;SHT31;53438;48.898;2.308;2023-07-20T14:50:00;25.82;36.54
66582;SHT31;53438;48.898;2.308;2023-07-20T14:52:27;26.02;36.85
66582;SHT31;53438;48.898;2.308;2023-07-20T14:54:54;25.82;36.31
66582;SHT31;53438;48.898;2.308;2023-07-20T14:57:21;26.26;35.80
66582;SHT31;53438;48.898;2.308;2023-07-20T14:59:49;26.47;35.58
66582;SHT31;53438;48.898;2.308;2023-07-20T15:02:14;26.40;36.20
66582;SHT31;53438;48.898;2.308;2023-07-20T15:04:48;26.09;35.85
66582;SHT31;53438;48.898;2.308;2023-07-20T15:07:16;26.26;36.00
66582;SHT31;53438;48.898;2.308;2023-07-20T15:09:41;26.32;35.67
66582;SHT31;53438;48.898;2.308;2023-07-20T15:12:07;26.32;35.99
66582;SHT31;53438;48.898;2.308;2023-07-20T15:14:33;26.29;35.64
66582;SHT31;53438;48.898;2.308;2023-07-20T15:16:58;26.22;36.00
66582;SHT31;53438;48.898;2.308;2023-07-20T15:19:23;26.19;35.78
66582;SHT31;53438;48.898;2.308;2023-07-20T15:21:49;26.22;36.06
66582;SHT31;53438;48.898;2.308;2023-07-20T15:24:14;26.29;36.27
66582;SHT31;53438;48.898;2.308;2023-07-20T15:26:40;26.33;36.21
66582;SHT31;53438;48.898;2.308;2023-07-20T15:29:06;26.23;35.88
66582;SHT31;53438;48.898;2.308;2023-07-20T15:31:32;26.26;35.61
66582;SHT31;53438;48.898;2.308;2023-07-20T15:33:57;26.28;35.45
66582;SHT31;53438;48.898;2.308;2023-07-20T15:36:22;25.99;34.74
66582;SHT31;53438;48.898;2.308;2023-07-20T15:38:48;26.06;34.18
66582;SHT31;53438;48.898;2.308;2023-07-20T15:41:14;26.15;34.74
66582;SHT31;53438;48.898;2.308;2023-07-20T15:43:40;26.22;35.08
66582;SHT31;53438;48.898;2.308;2023-07-20T15:48:46;26.15;35.32
66582;SHT31;53438;48.898;2.308;2023-07-20T15:51:11;25.88;35.42
66582;SHT31;53438;48.898;2.308;2023-07-20T15:53:37;25.93;35.79
66582;SHT31;53438;48.898;2.308;2023-07-20T15:56:03;25.75;35.39
66582;SHT31;53438;48.898;2.308;2023-07-20T15:58:28;25.72;35.74
66582;SHT31;53438;48.898;2.308;2023-07-20T16:00:54;25.78;35.64
66582;SHT31;53438;48.898;2.308;2023-07-20T16:03:20;25.86;35.43
66582;SHT31;53438;48.898;2.308;2023-07-20T16:05:46;25.78;35.35
66582;SHT31;53438;48.898;2.308;2023-07-20T16:08:11;25.74;35.48
66582;SHT31;53438;48.898;2.308;2023-07-20T16:10:36;25.79;35.88
66582;SHT31;53438;48.898;2.308;2023-07-20T16:13:02;25.75;35.45
66582;SHT31;53438;48.898;2.308;2023-07-20T16:15:27;25.64;35.65
66582;SHT31;53438;48.898;2.308;2023-07-20T16:17:52;25.50;35.92
66582;SHT31;53438;48.898;2.308;2023-07-20T16:20:19;25.45;35.94
66582;SHT31;53438;48.898;2.308;2023-07-20T16:22:44;25.55;36.32
66582;SHT31;53438;48.898;2.308;2023-07-20T16:25:09;25.55;36.35
66582;SHT31;53438;48.898;2.308;2023-07-20T16:27:35;25.55;36.09
66582;SHT31;53438;48.898;2.308;2023-07-20T16:30:01;25.60;36.36
66582;SHT31;53438;48.898;2.308;2023-07-20T16:32:26;25.55;36.26
66582;SHT31;53438;48.898;2.308;2023-07-20T16:34:52;25.45;36.08
66582;SHT31;53438;48.898;2.308;2023-07-20T16:37:17;25.41;36.31
66582;SHT31;53438;48.898;2.308;2023-07-20T16:39:42;25.51;36.66
66582;SHT31;53438;48.898;2.308;2023-07-20T16:42:09;25.52;36.77
66582;SHT31;53438;48.898;2.308;2023-07-20T16:44:34;25.52;36.81
66582;SHT31;53438;48.898;2.308;2023-07-20T16:46:59;25.55;36.93
66582;SHT31;53438;48.898;2.308;2023-07-20T16:49:25;25.37;37.06
66582;SHT31;53438;48.898;2.308;2023-07-20T16:51:52;25.31;36.92
66582;SHT31;53438;48.898;2.308;2023-07-20T16:54:17;25.37;37.00
66582;SHT31;53438;48.898;2.308;2023-07-20T16:56:42;25.38;37.28
66582;SHT31;53438;48.898;2.308;2023-07-20T16:59:08;25.30;37.15
66582;SHT31;53438;48.898;2.308;2023-07-20T17:01:33;25.30;37.57
66582;SHT31;53438;48.898;2.308;2023-07-20T17:03:59;25.06;37.67
66582;SHT31;53438;48.898;2.308;2023-07-20T17:06:24;25.13;37.61
66582;SHT31;53438;48.898;2.308;2023-07-20T17:08:49;25.11;37.84
66582;SHT31;53438;48.898;2.308;2023-07-20T17:11:15;25.13;37.80
66582;SHT31;53438;48.898;2.308;2023-07-20T17:13:40;25.11;37.66
66582;SHT31;53438;48.898;2.308;2023-07-20T17:16:06;25.16;37.71
66582;SHT31;53438;48.898;2.308;2023-07-20T17:18:31;25.19;37.64
66582;SHT31;53438;48.898;2.308;2023-07-20T17:20:57;25.13;37.69
66582;SHT31;53438;48.898;2.308;2023-07-20T17:23:23;25.20;37.67
66582;SHT31;53438;48.898;2.308;2023-07-20T17:25:48;25.16;37.79
66582;SHT31;53438;48.898;2.308;2023-07-20T17:28:14;25.19;37.76
66582;SHT31;53438;48.898;2.308;2023-07-20T17:30:40;24.96;37.91
66582;SHT31;53438;48.898;2.308;2023-07-20T17:33:06;24.84;38.35
66582;SHT31;53438;48.898;2.308;2023-07-20T17:35:31;24.75;38.06
66582;SHT31;53438;48.898;2.308;2023-07-20T17:37:56;24.72;38.21
66582;SHT31;53438;48.898;2.308;2023-07-20T17:40:22;24.77;38.14
66582;SHT31;53438;48.898;2.308;2023-07-20T17:42:48;24.70;38.35
66582;SHT31;53438;48.898;2.308;2023-07-20T17:45:14;24.76;38.23
66582;SHT31;53438;48.898;2.308;2023-07-20T17:47:39;24.69;38.29
66582;SHT31;53438;48.898;2.308;2023-07-20T17:50:06;24.66;38.18
66582;SHT31;53438;48.898;2.308;2023-07-20T17:52:32;24.73;38.35
66582;SHT31;53438;48.898;2.308;2023-07-20T17:54:57;24.80;38.18
66582;SHT31;53438;48.898;2.308;2023-07-20T17:57:24;24.90;37.90
66582;SHT31;53438;48.898;2.308;2023-07-20T17:59:50;24.97;37.69
66582;SHT31;53438;48.898;2.308;2023-07-20T18:02:15;25.10;37.57
66582;SHT31;53438;48.898;2.308;2023-07-20T18:04:40;24.99;37.68
66582;SHT31;53438;48.898;2.308;2023-07-20T18:07:06;24.96;37.77
66582;SHT31;53438;48.898;2.308;2023-07-20T18:09:32;24.93;37.69
66582;SHT31;53438;48.898;2.308;2023-07-20T18:11:57;24.93;37.79
66582;SHT31;53438;48.898;2.308;2023-07-20T18:14:22;24.84;37.57
66582;SHT31;53438;48.898;2.308;2023-07-20T18:16:48;24.87;37.62
66582;SHT31;53438;48.898;2.308;2023-07-20T18:19:13;24.86;37.69
66582;SHT31;53438;48.898;2.308;2023-07-20T18:21:38;24.86;37.66
66582;SHT31;53438;48.898;2.308;2023-07-20T18:24:04;24.72;38.09
66582;SHT31;53438;48.898;2.308;2023-07-20T18:26:29;24.61;38.35
66582;SHT31;53438;48.898;2.308;2023-07-20T18:28:55;24.49;38.36
66582;SHT31;53438;48.898;2.308;2023-07-20T18:31:20;24.66;38.21
66582;SHT31;53438;48.898;2.308;2023-07-20T18:33:46;24.73;38.01
66582;SHT31;53438;48.898;2.308;2023-07-20T18:36:12;24.66;38.06